Time;durP1;ratioP1;P1;durP2;ratioP2;P2;SDS_P1;SDS_P2;PMS_P1;PMS_P2;Temp;Humidity;BMP_temperature;BMP_pressure;BME280_temperature;BME280_humidity;BME280_pressure;Samples;Min_cycle;Max_cycle;Signal;HPM_P1;HPM_P2
2021/12/01 00:02:16;;;;;;;1.20;1.10;;;4.80;80.50;;;;;;5069317;28;46902;-64
2021/12/01 00:04:41;;;;;;;2.00;1.33;;;4.90;80.60;;;;;;5068909;28;46442;-65
2021/12/01 00:07:08;;;;;;;1.13;1.00;;;4.90;80.50;;;;;;5072154;28;46284;-65
2021/12/01 00:09:34;;;;;;;1.57;1.23;;;4.90;80.40;;;;;;5068477;28;47128;-66
2021/12/01 00:12:00;;;;;;;1.20;0.93;;;4.90;80.40;;;;;;5073438;28;46403;-66
2021/12/01 00:14:26;;;;;;;1.50;1.30;;;5.00;80.50;;;;;;5072886;27;45792;-67
2021/12/01 00:16:52;;;;;;;1.73;1.10;;;5.00;80.50;;;;;;5070715;28;46538;-66
2021/12/01 00:19:17;;;;;;;2.97;1.10;;;5.00;80.40;;;;;;5066577;28;47742;-66
2021/12/01 00:21:43;;;;;;;1.17;1.00;;;5.00;80.40;;;;;;5070666;28;46511;-66
2021/12/01 00:24:09;;;;;;;4.40;0.90;;;5.00;80.40;;;;;;5067643;27;46304;-66
2021/12/01 00:26:35;;;;;;;1.40;1.00;;;5.00;80.50;;;;;;5066845;28;46617;-66
2021/12/01 00:29:00;;;;;;;1.10;1.00;;;5.00;80.40;;;;;;5067419;28;47941;-66
2021/12/01 00:31:26;;;;;;;0.80;0.70;;;5.00;80.50;;;;;;5072549;28;47303;-64
2021/12/01 00:33:52;;;;;;;1.50;1.20;;;5.00;80.40;;;;;;5070033;28;46453;-65
2021/12/01 00:36:18;;;;;;;1.00;0.90;;;5.00;80.30;;;;;;5069781;28;46561;-65
2021/12/01 00:38:44;;;;;;;1.13;0.83;;;5.00;80.40;;;;;;5070429;28;48923;-64
2021/12/01 00:41:11;;;;;;;1.10;0.80;;;5.10;80.30;;;;;;5067836;28;46409;-67
2021/12/01 00:43:41;;;;;;;1.00;0.90;;;5.10;80.30;;;;;;5083302;27;46676;-66
2021/12/01 00:46:56;;;;;;;1.20;1.10;;;5.10;80.20;;;;;;5072082;28;46324;-65
2021/12/01 00:48:55;;;;;;;1.00;0.90;;;5.10;80.20;;;;;;5068679;28;46320;-66
2021/12/01 00:51:21;;;;;;;1.13;1.03;;;5.10;80.20;;;;;;5067543;28;46451;-66
2021/12/01 00:53:50;;;;;;;1.00;0.90;;;5.10;80.00;;;;;;5072810;28;46405;-66
2021/12/01 00:56:15;;;;;;;1.33;1.07;;;5.10;80.00;;;;;;5069347;28;46403;-65
2021/12/01 00:58:41;;;;;;;1.27;1.03;;;5.20;80.00;;;;;;5069924;28;48238;-66
2021/12/01 01:01:07;;;;;;;1.00;0.90;;;5.20;80.00;;;;;;5067685;27;46643;-66
2021/12/01 01:03:33;;;;;;;1.20;1.00;;;5.20;79.80;;;;;;5071039;27;46428;-66
2021/12/01 01:05:59;;;;;;;1.00;0.90;;;5.20;80.00;;;;;;5072395;28;46489;-66
2021/12/01 01:08:25;;;;;;;1.20;0.97;;;5.30;79.90;;;;;;5071659;28;48972;-67
2021/12/01 01:16:22;;;;;;;1.33;1.23;;;5.30;79.80;;;;;;5065515;28;46344;-66
2021/12/01 01:19:00;;;;;;;1.70;1.27;;;5.20;79.80;;;;;;5071328;28;48881;-66
2021/12/01 01:21:29;;;;;;;1.30;1.00;;;5.30;80.00;;;;;;5071132;27;46375;-65
2021/12/01 01:23:55;;;;;;;1.37;1.10;;;5.30;79.70;;;;;;5086864;27;46354;-67
2021/12/01 01:26:21;;;;;;;1.40;1.10;;;5.30;79.80;;;;;;5071591;28;46553;-66
2021/12/01 01:28:48;;;;;;;1.50;1.30;;;5.30;79.80;;;;;;5073443;28;49167;-67
2021/12/01 01:31:14;;;;;;;1.30;1.17;;;5.30;79.80;;;;;;5073010;27;45883;-66
2021/12/01 01:33:40;;;;;;;1.47;1.00;;;5.30;79.90;;;;;;5068383;27;46631;-66
2021/12/01 01:36:07;;;;;;;1.30;1.13;;;5.20;79.90;;;;;;5070752;28;46470;-66
2021/12/01 01:38:33;;;;;;;2.03;1.40;;;5.30;80.00;;;;;;5084263;27;47234;-66
2021/12/01 01:41:01;;;;;;;1.93;1.20;;;5.30;79.90;;;;;;5068083;28;46514;-66
2021/12/01 01:43:27;;;;;;;2.10;1.43;;;5.30;79.80;;;;;;5068833;28;46475;-66
2021/12/01 01:45:57;;;;;;;1.43;1.20;;;5.40;79.90;;;;;;5069798;27;46046;-67
2021/12/01 01:48:33;;;;;;;1.60;1.30;;;5.30;79.70;;;;;;5067867;28;47765;-66
2021/12/01 01:51:03;;;;;;;2.00;1.30;;;5.40;79.80;;;;;;5073755;27;45849;-67
2021/12/01 01:53:30;;;;;;;1.90;1.27;;;5.30;79.80;;;;;;5070001;28;46451;-66
2021/12/01 01:56:03;;;;;;;2.03;1.67;;;5.30;79.90;;;;;;5067568;28;46414;-66
2021/12/01 01:58:29;;;;;;;1.23;1.13;;;5.30;79.90;;;;;;5070321;28;47089;-66
2021/12/01 02:01:08;;;;;;;4.63;0.93;;;5.30;80.00;;;;;;5070831;27;46378;-67
2021/12/01 02:03:40;;;;;;;1.73;1.00;;;5.30;80.00;;;;;;5070466;28;46391;-66
2021/12/01 02:06:07;;;;;;;1.40;1.00;;;5.30;80.00;;;;;;5068430;28;46501;-65
2021/12/01 02:08:35;;;;;;;1.37;1.10;;;5.20;80.00;;;;;;5069744;27;46440;-65
2021/12/01 02:11:05;;;;;;;2.03;1.30;;;5.30;80.00;;;;;;5067109;28;46388;-66
2021/12/01 02:13:32;;;;;;;1.20;1.00;;;5.30;80.00;;;;;;5066515;28;46396;-66
2021/12/01 02:15:58;;;;;;;1.20;1.00;;;5.30;80.00;;;;;;5080995;28;46670;-65
2021/12/01 02:18:25;;;;;;;1.70;1.37;;;5.30;80.10;;;;;;5073484;27;46325;-65
2021/12/01 02:21:05;;;;;;;1.20;1.00;;;5.30;80.00;;;;;;5075721;28;46419;-66
2021/12/01 02:23:33;;;;;;;1.20;0.93;;;5.30;79.90;;;;;;5078342;27;46472;-65
2021/12/01 02:25:59;;;;;;;1.80;1.00;;;5.30;79.90;;;;;;5074222;27;46745;-65
2021/12/01 02:28:25;;;;;;;0.97;0.80;;;5.30;79.90;;;;;;5081775;28;48846;-64
2021/12/01 02:30:51;;;;;;;1.43;0.80;;;5.30;79.80;;;;;;5069857;28;46376;-65
2021/12/01 02:33:16;;;;;;;1.30;1.00;;;5.30;79.80;;;;;;5073037;28;46418;-65
2021/12/01 02:35:42;;;;;;;1.13;0.90;;;5.30;79.70;;;;;;5075371;28;46439;-65
2021/12/01 02:38:08;;;;;;;1.27;1.00;;;5.30;79.70;;;;;;5071622;28;47785;-65
2021/12/01 02:40:34;;;;;;;1.37;1.10;;;5.30;79.70;;;;;;5075259;27;46460;-65
2021/12/01 02:43:00;;;;;;;1.80;0.90;;;5.30;79.70;;;;;;5073965;27;46462;-65
2021/12/01 02:45:26;;;;;;;3.00;1.00;;;5.40;79.90;;;;;;5069867;28;45901;-66
2021/12/01 02:47:51;;;;;;;1.17;0.90;;;5.40;79.70;;;;;;5069431;28;47970;-66
2021/12/01 02:50:17;;;;;;;0.93;0.77;;;5.40;79.70;;;;;;5073684;28;46423;-66
2021/12/01 02:52:43;;;;;;;1.10;0.90;;;5.40;79.60;;;;;;5070503;28;46469;-66
2021/12/01 02:55:11;;;;;;;1.70;1.20;;;5.40;79.50;;;;;;5069097;28;46596;-65
2021/12/01 02:57:52;;;;;;;1.10;0.97;;;5.40;79.40;;;;;;5072371;28;46276;-67
2021/12/01 03:00:21;;;;;;;1.63;1.10;;;5.40;79.40;;;;;;5068348;28;46461;-66
2021/12/01 03:02:48;;;;;;;1.10;1.00;;;5.50;79.40;;;;;;5072170;27;46494;-66
2021/12/01 03:05:16;;;;;;;1.33;1.10;;;5.50;79.50;;;;;;5073188;27;45967;-66
2021/12/01 03:07:43;;;;;;;1.30;1.10;;;5.50;79.40;;;;;;5071898;28;46463;-66
2021/12/01 03:10:09;;;;;;;1.60;1.10;;;5.40;79.40;;;;;;5073044;27;45923;-66
2021/12/01 03:12:37;;;;;;;1.20;1.00;;;5.40;79.40;;;;;;5083135;27;46514;-66
2021/12/01 03:15:06;;;;;;;1.67;1.50;;;5.40;79.40;;;;;;5071901;28;46568;-66
2021/12/01 03:17:32;;;;;;;1.57;1.27;;;5.40;79.50;;;;;;5076620;28;46510;-66
2021/12/01 03:19:58;;;;;;;1.60;1.20;;;5.40;79.50;;;;;;5077873;28;46466;-66
2021/12/01 03:22:25;;;;;;;1.37;1.10;;;5.40;79.40;;;;;;5079371;28;46553;-66
2021/12/01 03:24:51;;;;;;;2.90;1.50;;;5.40;79.40;;;;;;5067314;28;45839;-65
2021/12/01 03:27:18;;;;;;;1.73;1.50;;;5.50;79.40;;;;;;5067310;27;47978;-65
2021/12/01 03:29:49;;;;;;;1.77;1.37;;;5.50;79.40;;;;;;5071224;28;46393;-65
2021/12/01 03:32:16;;;;;;;1.50;1.40;;;5.50;79.40;;;;;;5071632;27;46426;-66
2021/12/01 03:34:43;;;;;;;2.27;1.37;;;5.50;79.20;;;;;;5073180;28;46556;-65
2021/12/01 03:37:11;;;;;;;1.70;1.20;;;5.50;79.40;;;;;;5066338;28;48031;-64
2021/12/01 03:39:37;;;;;;;1.33;1.20;;;5.50;79.30;;;;;;5073363;28;45928;-66
2021/12/01 03:42:04;;;;;;;1.90;1.30;;;5.50;79.30;;;;;;5066910;27;46355;-66
2021/12/01 03:44:30;;;;;;;2.00;1.40;;;5.50;79.40;;;;;;5077756;28;46339;-66
2021/12/01 03:46:56;;;;;;;2.10;1.27;;;5.40;79.40;;;;;;5071021;27;47323;-66
2021/12/01 03:49:21;;;;;;;2.00;1.50;;;5.40;79.50;;;;;;5073363;28;46190;-66
2021/12/01 03:51:48;;;;;;;2.33;1.60;;;5.40;79.50;;;;;;5076001;28;46433;-66
2021/12/01 03:54:13;;;;;;;3.07;1.67;;;5.40;79.60;;;;;;5075664;27;46476;-66
2021/12/01 03:56:40;;;;;;;2.17;1.50;;;5.40;79.50;;;;;;5073188;28;48254;-65
2021/12/01 03:59:06;;;;;;;1.83;1.53;;;5.40;79.40;;;;;;5074861;28;46567;-66
2021/12/01 04:01:33;;;;;;;2.23;1.67;;;5.40;79.20;;;;;;5071221;28;46412;-66
2021/12/01 04:03:58;;;;;;;1.90;1.43;;;5.50;79.00;;;;;;5070054;27;46056;-66
2021/12/01 04:06:26;;;;;;;2.27;1.60;;;5.50;78.90;;;;;;5072532;28;49158;-66
2021/12/01 04:08:52;;;;;;;1.80;1.60;;;5.60;78.90;;;;;;5068914;28;46444;-66
2021/12/01 04:11:18;;;;;;;2.40;2.00;;;5.60;78.80;;;;;;5071073;28;46563;-67
2021/12/01 04:13:43;;;;;;;1.60;1.40;;;5.60;78.70;;;;;;5069751;27;46220;-66
2021/12/01 04:16:10;;;;;;;2.17;1.60;;;5.60;78.60;;;;;;5071518;28;47706;-66
2021/12/01 04:18:37;;;;;;;2.10;1.60;;;5.60;78.60;;;;;;5067424;28;45860;-66
2021/12/01 04:21:03;;;;;;;2.10;1.80;;;5.60;78.70;;;;;;5075808;28;46457;-67
2021/12/01 04:23:30;;;;;;;2.57;2.00;;;5.70;78.70;;;;;;5072956;28;46387;-66
2021/12/01 04:25:56;;;;;;;1.93;1.60;;;5.70;78.70;;;;;;5073308;27;46547;-66
2021/12/01 04:28:22;;;;;;;2.70;1.90;;;5.70;78.60;;;;;;5071097;28;46377;-66
2021/12/01 04:30:48;;;;;;;2.23;1.90;;;5.70;78.60;;;;;;5068505;27;46376;-66
2021/12/01 04:33:14;;;;;;;2.30;1.77;;;5.70;78.50;;;;;;5066679;27;46550;-66
2021/12/01 04:35:40;;;;;;;2.03;1.73;;;5.70;79.60;;;;;;5068296;28;46535;-66
2021/12/01 04:38:06;;;;;;;3.90;2.13;;;5.70;78.50;;;;;;5069658;28;46404;-66
2021/12/01 04:40:32;;;;;;;2.30;1.80;;;5.70;78.50;;;;;;5085205;27;46481;-66
2021/12/01 04:42:58;;;;;;;2.27;1.73;;;5.70;78.50;;;;;;5072485;28;46654;-66
2021/12/01 04:45:25;;;;;;;1.87;1.60;;;5.70;78.50;;;;;;5073383;28;48145;-67
2021/12/01 04:47:53;;;;;;;5.33;2.20;;;5.70;78.60;;;;;;5067456;27;46312;-67
2021/12/01 04:50:22;;;;;;;2.23;1.70;;;5.70;78.60;;;;;;5066265;28;45925;-67
2021/12/01 04:52:49;;;;;;;3.47;2.00;;;5.60;78.70;;;;;;5069237;28;46342;-67
2021/12/01 04:55:15;;;;;;;3.10;2.13;;;5.60;78.90;;;;;;5070330;28;46353;-67
2021/12/01 04:57:43;;;;;;;2.50;2.00;;;5.60;78.90;;;;;;5064447;28;45762;-67
2021/12/01 05:00:12;;;;;;;2.80;1.83;;;5.60;78.80;;;;;;5067577;28;46375;-66
2021/12/01 05:02:38;;;;;;;1.83;1.60;;;5.70;78.70;;;;;;5070092;27;45913;-67
2021/12/01 05:05:04;;;;;;;2.13;1.50;;;5.70;78.70;;;;;;5070418;27;46510;-67
2021/12/01 05:07:30;;;;;;;2.10;1.53;;;5.70;78.60;;;;;;5078634;28;46303;-67
2021/12/01 05:09:56;;;;;;;2.60;1.93;;;5.70;78.50;;;;;;5072829;28;46452;-66
2021/12/01 05:12:23;;;;;;;2.37;1.77;;;5.70;78.50;;;;;;5067546;28;46438;-67
2021/12/01 05:14:49;;;;;;;5.03;1.63;;;5.80;78.50;;;;;;5069650;28;47658;-67
2021/12/01 05:17:15;;;;;;;1.70;1.40;;;5.80;78.50;;;;;;5072741;27;46419;-67
2021/12/01 05:19:41;;;;;;;2.20;1.67;;;5.80;78.30;;;;;;5073602;27;46332;-66
2021/12/01 05:22:06;;;;;;;2.40;1.43;;;5.80;78.40;;;;;;5071979;27;46474;-67
2021/12/01 05:24:33;;;;;;;2.40;1.70;;;5.80;78.40;;;;;;5072921;28;48019;-66
2021/12/01 05:26:59;;;;;;;1.70;1.30;;;5.90;78.40;;;;;;5068403;27;46349;-66
2021/12/01 05:29:25;;;;;;;2.73;1.60;;;5.90;78.30;;;;;;5068653;28;46521;-66
2021/12/01 05:31:53;;;;;;;2.13;1.70;;;5.90;78.40;;;;;;5068219;28;45879;-66
2021/12/01 05:34:18;;;;;;;2.50;1.80;;;5.90;78.20;;;;;;5069730;27;47784;-66
2021/12/01 05:36:44;;;;;;;2.08;1.45;;;5.90;78.10;;;;;;5070273;28;46324;-66
2021/12/01 05:39:10;;;;;;;2.70;1.60;;;5.90;78.60;;;;;;5075237;27;46497;-66
2021/12/01 05:41:36;;;;;;;2.23;1.53;;;5.80;78.10;;;;;;5074004;28;46938;-66
2021/12/01 05:44:02;;;;;;;4.20;1.37;;;5.90;79.20;;;;;;5066511;28;46432;-65
2021/12/01 05:46:28;;;;;;;1.90;1.70;;;5.80;79.20;;;;;;5067348;28;46657;-66
2021/12/01 05:48:54;;;;;;;4.07;1.70;;;5.80;79.10;;;;;;5067460;27;46400;-66
2021/12/01 05:51:21;;;;;;;2.47;1.70;;;5.80;79.10;;;;;;5075535;27;46434;-66
2021/12/01 05:53:48;;;;;;;2.17;1.47;;;5.80;78.90;;;;;;5078448;28;47871;-67
2021/12/01 05:56:14;;;;;;;2.30;1.70;;;5.80;78.80;;;;;;5075952;27;46320;-66
2021/12/01 05:58:40;;;;;;;1.57;1.20;;;5.80;78.80;;;;;;5075493;28;46435;-67
2021/12/01 06:01:05;;;;;;;3.20;1.50;;;5.80;78.70;;;;;;5074212;28;46502;-66
2021/12/01 06:03:31;;;;;;;3.17;1.90;;;5.80;78.80;;;;;;5070992;28;47380;-67
2021/12/01 06:05:57;;;;;;;1.50;1.30;;;5.70;78.70;;;;;;5067740;27;46292;-65
2021/12/01 06:08:23;;;;;;;2.07;1.43;;;5.70;78.90;;;;;;5073022;27;46470;-66
2021/12/01 06:10:49;;;;;;;2.00;1.50;;;5.70;78.90;;;;;;5077883;28;46364;-67
2021/12/01 06:13:20;;;;;;;3.10;1.43;;;5.70;78.80;;;;;;5078928;27;46566;-67
2021/12/01 06:15:49;;;;;;;1.30;1.00;;;5.60;78.90;;;;;;5078491;28;46437;-67
2021/12/01 06:18:15;;;;;;;2.20;1.87;;;5.60;79.20;;;;;;5066827;28;46436;-67
2021/12/01 06:20:41;;;;;;;1.93;1.40;;;5.50;79.30;;;;;;5070687;28;46377;-66
2021/12/01 06:23:07;;;;;;;2.50;1.30;;;5.40;79.50;;;;;;5072105;28;48816;-67
2021/12/01 06:25:33;;;;;;;1.83;1.50;;;5.30;79.70;;;;;;5073379;27;46356;-66
2021/12/01 06:28:00;;;;;;;2.50;1.60;;;5.30;79.80;;;;;;5074379;28;46489;-65
2021/12/01 06:30:31;;;;;;;3.33;1.70;;;5.30;79.70;;;;;;5075380;27;46448;-65
2021/12/01 06:32:57;;;;;;;1.93;1.40;;;5.30;79.50;;;;;;5070847;28;47948;-66
2021/12/01 06:35:23;;;;;;;2.70;1.40;;;5.30;79.40;;;;;;5070532;28;46463;-65
2021/12/01 06:37:54;;;;;;;1.77;1.40;;;5.30;79.40;;;;;;5076845;27;46498;-66
2021/12/01 06:40:21;;;;;;;1.60;1.40;;;5.40;79.30;;;;;;5074435;27;46685;-67
2021/12/01 06:42:48;;;;;;;2.23;1.67;;;5.40;79.20;;;;;;5071376;27;48006;-66
2021/12/01 06:45:16;;;;;;;1.60;1.30;;;5.40;79.10;;;;;;5076344;27;46733;-67
2021/12/01 06:47:43;;;;;;;5.20;1.40;;;5.50;78.90;;;;;;5076381;28;46547;-67
2021/12/01 06:50:10;;;;;;;1.80;1.43;;;5.50;78.80;;;;;;5072009;28;46824;-66
2021/12/01 06:52:38;;;;;;;1.50;1.37;;;5.50;78.60;;;;;;5079970;28;46568;-66
2021/12/01 06:55:06;;;;;;;1.97;1.40;;;5.50;78.40;;;;;;5075481;27;46413;-66
2021/12/01 06:57:32;;;;;;;1.60;1.50;;;5.60;78.30;;;;;;5072479;27;46510;-66
2021/12/01 06:59:58;;;;;;;2.33;1.53;;;5.60;78.30;;;;;;5072957;27;45933;-66
2021/12/01 07:02:24;;;;;;;2.10;1.40;;;5.60;78.20;;;;;;5079651;28;47998;-66
2021/12/01 07:04:50;;;;;;;2.70;1.77;;;5.60;78.20;;;;;;5072812;27;46418;-67
2021/12/01 07:07:16;;;;;;;2.00;1.80;;;5.60;78.10;;;;;;5077410;27;46297;-66
2021/12/01 07:09:44;;;;;;;2.23;1.60;;;5.60;78.10;;;;;;5078136;27;46794;-67
2021/12/01 07:12:11;;;;;;;2.07;1.10;;;5.60;78.00;;;;;;5078078;27;47947;-66
2021/12/01 07:14:37;;;;;;;2.33;1.40;;;5.60;78.00;;;;;;5074421;28;45830;-65
2021/12/01 07:17:03;;;;;;;2.80;1.40;;;5.70;78.00;;;;;;5071111;27;45909;-66
2021/12/01 07:19:29;;;;;;;3.40;1.30;;;5.70;77.80;;;;;;5071322;27;46487;-66
2021/12/01 07:21:54;;;;;;;2.00;1.60;;;5.60;78.00;;;;;;5071434;27;47991;-66
2021/12/01 07:24:20;;;;;;;1.90;1.23;;;5.60;77.80;;;;;;5069838;28;46178;-66
2021/12/01 07:26:46;;;;;;;2.30;1.90;;;5.60;78.10;;;;;;5073810;28;46307;-66
2021/12/01 07:29:12;;;;;;;2.10;1.57;;;5.50;78.20;;;;;;5073173;27;46384;-66
2021/12/01 07:31:38;;;;;;;1.57;1.20;;;5.40;78.20;;;;;;5071400;28;47380;-66
2021/12/01 07:34:04;;;;;;;1.97;1.43;;;5.40;78.50;;;;;;5074896;27;46435;-67
2021/12/01 07:36:30;;;;;;;2.97;1.73;;;5.30;78.60;;;;;;5073981;27;46405;-66
2021/12/01 07:38:58;;;;;;;2.23;1.43;;;5.30;78.50;;;;;;5075328;27;45888;-65
2021/12/01 07:41:24;;;;;;;2.40;1.70;;;5.30;78.40;;;;;;5073933;27;48046;-66
2021/12/01 07:43:49;;;;;;;2.63;1.20;;;5.40;78.30;;;;;;5075403;28;46459;-64
2021/12/01 07:46:15;;;;;;;2.90;1.70;;;5.50;78.10;;;;;;5078381;27;46453;-65
2021/12/01 07:48:41;;;;;;;2.30;1.50;;;5.50;77.60;;;;;;5066804;28;46608;-65
2021/12/01 07:51:07;;;;;;;2.13;1.65;;;5.60;77.60;;;;;;5068315;27;48764;-65
2021/12/01 07:53:33;;;;;;;1.67;1.50;;;5.60;77.60;;;;;;5068726;27;46517;-65
2021/12/01 07:56:01;;;;;;;4.87;1.40;;;5.70;77.80;;;;;;5070445;28;46426;-67
2021/12/01 07:58:27;;;;;;;2.43;1.60;;;5.70;77.50;;;;;;5074927;27;46408;-67
2021/12/01 08:00:52;;;;;;;2.10;1.57;;;5.80;77.40;;;;;;5078801;28;47899;-67
2021/12/01 08:03:18;;;;;;;1.80;1.20;;;5.80;77.00;;;;;;5074400;27;45767;-64
2021/12/01 08:05:44;;;;;;;1.40;1.00;;;5.80;76.80;;;;;;5071011;28;46509;-67
2021/12/01 08:08:10;;;;;;;2.23;1.40;;;5.80;76.80;;;;;;5067726;27;46375;-67
2021/12/01 08:10:37;;;;;;;1.60;1.03;;;5.80;76.90;;;;;;5068025;28;47352;-66
2021/12/01 08:13:04;;;;;;;2.00;1.40;;;5.80;76.00;;;;;;5066371;28;46289;-67
2021/12/01 08:15:30;;;;;;;2.05;1.50;;;5.80;76.70;;;;;;5069764;28;46432;-65
2021/12/01 08:17:59;;;;;;;2.30;1.43;;;5.80;76.70;;;;;;5065400;27;46583;-65
2021/12/01 08:20:26;;;;;;;1.57;1.20;;;5.80;76.90;;;;;;5067896;28;46408;-66
2021/12/01 08:22:51;;;;;;;1.50;1.10;;;5.90;76.80;;;;;;5070355;28;46590;-65
2021/12/01 08:25:17;;;;;;;1.30;1.20;;;5.90;76.60;;;;;;5069730;27;46350;-67
2021/12/01 08:27:43;;;;;;;6.13;1.40;;;6.00;76.30;;;;;;5070683;27;46291;-67
2021/12/01 08:30:09;;;;;;;1.97;1.33;;;6.10;76.10;;;;;;5068740;27;46271;-67
2021/12/01 08:32:35;;;;;;;3.80;1.23;;;6.10;75.80;;;;;;5074879;27;46399;-65
2021/12/01 08:35:01;;;;;;;1.60;1.00;;;6.20;75.70;;;;;;5071942;28;46358;-66
2021/12/01 08:37:27;;;;;;;1.90;1.23;;;6.20;75.60;;;;;;5079658;28;46935;-66
2021/12/01 08:39:53;;;;;;;5.40;3.10;;;6.30;75.60;;;;;;5068301;27;47135;-66
2021/12/01 08:42:22;;;;;;;2.40;1.27;;;6.40;75.10;;;;;;5069865;28;46554;-66
2021/12/01 08:44:49;;;;;;;1.83;1.27;;;6.40;74.90;;;;;;5085900;27;45887;-66
2021/12/01 08:47:17;;;;;;;2.47;1.30;;;6.40;74.80;;;;;;5068143;27;45946;-67
2021/12/01 08:49:43;;;;;;;2.60;1.27;;;6.50;74.90;;;;;;5068599;28;46462;-65
2021/12/01 08:52:10;;;;;;;2.53;1.20;;;6.60;75.00;;;;;;5076314;27;46544;-67
2021/12/01 08:54:37;;;;;;;2.00;1.20;;;6.70;75.20;;;;;;5070777;28;46439;-66
2021/12/01 08:57:03;;;;;;;1.63;1.20;;;6.80;75.20;;;;;;5074164;27;46356;-66
2021/12/01 08:59:29;;;;;;;4.13;1.70;;;6.90;75.10;;;;;;5069022;27;47722;-67
2021/12/01 09:01:55;;;;;;;1.80;1.03;;;7.10;74.50;;;;;;5069857;27;46711;-66
2021/12/01 09:04:21;;;;;;;1.80;1.20;;;7.30;74.00;;;;;;5065831;28;46444;-66
2021/12/01 09:06:47;;;;;;;1.43;1.10;;;7.40;73.80;;;;;;5068562;28;45972;-66
2021/12/01 09:09:18;;;;;;;2.43;1.60;;;7.40;73.50;;;;;;5070425;28;46860;-65
2021/12/01 09:11:54;;;;;;;1.47;1.13;;;7.50;72.70;;;;;;5073291;28;45758;-65
2021/12/01 09:14:23;;;;;;;1.40;1.00;;;7.40;73.00;;;;;;5072005;28;46345;-66
2021/12/01 09:16:50;;;;;;;1.67;1.30;;;7.20;72.90;;;;;;5068653;28;46433;-65
2021/12/01 09:19:16;;;;;;;2.00;1.50;;;7.10;73.30;;;;;;5066894;28;47814;-65
2021/12/01 09:21:41;;;;;;;1.30;1.00;;;7.20;73.30;;;;;;5076589;28;46823;-64
2021/12/01 09:24:07;;;;;;;2.13;1.00;;;7.30;72.10;;;;;;5070552;27;46406;-64
2021/12/01 09:26:33;;;;;;;1.90;1.07;;;7.40;72.20;;;;;;5068928;28;46355;-64
2021/12/01 09:28:59;;;;;;;1.50;1.00;;;7.50;71.70;;;;;;5068067;27;47878;-64
2021/12/01 09:31:25;;;;;;;1.50;1.00;;;7.60;71.80;;;;;;5073543;28;46388;-65
2021/12/01 09:33:51;;;;;;;2.20;1.10;;;7.70;71.90;;;;;;5074067;27;45968;-66
2021/12/01 09:36:17;;;;;;;1.40;1.10;;;7.70;71.90;;;;;;5073640;28;46576;-64
2021/12/01 09:38:43;;;;;;;1.73;1.23;;;7.70;71.70;;;;;;5074908;28;48851;-65
2021/12/01 09:41:10;;;;;;;1.50;1.20;;;7.60;71.90;;;;;;5074173;27;46809;-64
2021/12/01 09:43:36;;;;;;;1.50;0.93;;;7.60;72.00;;;;;;5079364;27;46461;-65
2021/12/01 09:46:04;;;;;;;2.07;1.10;;;7.70;71.80;;;;;;5081129;28;46504;-66
2021/12/01 09:48:34;;;;;;;1.50;1.07;;;7.80;71.70;;;;;;5073543;27;46454;-65
2021/12/01 09:51:00;;;;;;;1.77;1.00;;;7.80;71.30;;;;;;5073476;27;45724;-66
2021/12/01 09:53:26;;;;;;;1.73;1.27;;;7.90;71.20;;;;;;5071820;27;46478;-65
2021/12/01 09:55:52;;;;;;;1.63;1.10;;;8.00;70.80;;;;;;5071184;27;46465;-65
2021/12/01 09:58:20;;;;;;;1.20;1.00;;;8.00;70.80;;;;;;5070893;28;47972;-65
2021/12/01 10:00:53;;;;;;;1.50;1.10;;;7.90;70.70;;;;;;5073564;27;46458;-65
2021/12/01 10:03:19;;;;;;;1.77;1.20;;;7.90;70.60;;;;;;5074318;28;46433;-66
2021/12/01 10:06:03;;;;;;;2.70;1.27;;;7.90;70.40;;;;;;5079645;28;46620;-65
2021/12/01 10:08:31;;;;;;;1.40;0.90;;;7.80;70.40;;;;;;5076920;28;47891;-66
2021/12/01 10:10:58;;;;;;;1.30;1.07;;;7.80;70.40;;;;;;5079199;28;46422;-65
2021/12/01 10:13:28;;;;;;;3.27;1.20;;;7.70;70.40;;;;;;5076929;28;46299;-66
2021/12/01 10:16:01;;;;;;;1.40;1.10;;;7.60;70.30;;;;;;5070143;27;46235;-65
2021/12/01 10:18:29;;;;;;;1.20;0.97;;;7.60;70.10;;;;;;5079566;27;47945;-66
2021/12/01 10:21:08;;;;;;;2.03;1.20;;;7.60;70.10;;;;;;5074153;27;46342;-65
2021/12/01 10:23:37;;;;;;;2.20;1.30;;;7.70;70.00;;;;;;5073360;27;46340;-64
2021/12/01 10:26:18;;;;;;;1.67;1.10;;;7.80;69.60;;;;;;5071517;28;46901;-66
2021/12/01 10:28:55;;;;;;;1.87;1.20;;;7.80;69.30;;;;;;5073728;28;46453;-66
2021/12/01 10:31:45;;;;;;;1.90;1.20;;;7.80;68.90;;;;;;5068521;28;46438;-65
2021/12/01 10:34:26;;;;;;;2.00;1.20;;;8.00;68.60;;;;;;5077140;28;46440;-66
2021/12/01 10:37:31;;;;;;;1.60;1.10;;;8.10;68.40;;;;;;5069926;27;46264;-65
2021/12/01 10:40:10;;;;;;;1.63;1.10;;;8.30;67.90;;;;;;5082376;28;48153;-67
2021/12/01 10:42:52;;;;;;;1.60;1.10;;;8.50;67.60;;;;;;5068463;28;46533;-65
2021/12/01 10:45:19;;;;;;;1.63;1.00;;;8.70;67.30;;;;;;5074921;28;45858;-64
2021/12/01 10:47:45;;;;;;;2.13;1.10;;;8.80;67.00;;;;;;5071209;28;46481;-65
2021/12/01 10:50:15;;;;;;;1.77;1.00;;;8.90;66.80;;;;;;5068191;28;46510;-65
2021/12/01 10:52:44;;;;;;;2.00;1.10;;;9.00;66.80;;;;;;5073893;28;46406;-66
2021/12/01 10:55:22;;;;;;;2.13;0.90;;;9.00;66.80;;;;;;5072518;27;46630;-66
2021/12/01 10:57:58;;;;;;;1.40;0.90;;;9.00;66.80;;;;;;5073709;28;46821;-66
2021/12/01 11:00:27;;;;;;;1.50;1.10;;;8.80;66.50;;;;;;5068008;27;47918;-64
2021/12/01 11:03:04;;;;;;;1.43;1.10;;;8.80;66.60;;;;;;5072492;27;46601;-62
2021/12/01 11:05:31;;;;;;;1.60;1.10;;;8.80;66.70;;;;;;5067714;28;46403;-65
2021/12/01 11:08:29;;;;;;;1.90;1.20;;;8.80;66.70;;;;;;5066541;28;46429;-65
2021/12/01 11:10:56;;;;;;;2.03;1.13;;;8.70;66.60;;;;;;5070883;28;47940;-65
2021/12/01 11:13:23;;;;;;;2.03;1.10;;;8.70;66.80;;;;;;5075974;28;46586;-65
2021/12/01 11:15:55;;;;;;;1.90;1.30;;;8.70;66.70;;;;;;5077381;28;46481;-66
2021/12/01 11:18:24;;;;;;;2.00;1.40;;;8.70;66.70;;;;;;5079659;28;46610;-64
2021/12/01 11:21:13;;;;;;;1.50;1.07;;;8.80;66.60;;;;;;5068961;28;46450;-66
2021/12/01 11:23:50;;;;;;;1.40;1.10;;;8.70;66.20;;;;;;5065872;28;46605;-65
2021/12/01 11:26:22;;;;;;;3.53;1.50;;;8.70;66.30;;;;;;5077472;28;46596;-65
2021/12/01 11:28:52;;;;;;;2.43;1.80;;;8.80;66.10;;;;;;5067883;28;46553;-66
2021/12/01 11:31:23;;;;;;;3.80;2.63;;;8.80;65.90;;;;;;5068380;28;47370;-66
2021/12/01 11:33:54;;;;;;;2.73;1.93;;;8.80;65.90;;;;;;5070590;28;46392;-67
2021/12/01 11:36:22;;;;;;;2.73;1.83;;;8.80;65.90;;;;;;5072626;28;46281;-67
2021/12/01 11:38:53;;;;;;;3.87;2.60;;;8.80;65.80;;;;;;5069494;28;46383;-65
2021/12/01 11:41:19;;;;;;;2.10;1.43;;;8.90;65.70;;;;;;5090006;27;48080;-65
2021/12/01 11:43:46;;;;;;;1.40;1.10;;;8.90;65.40;;;;;;5071883;27;46537;-65
2021/12/01 11:46:12;;;;;;;4.07;1.20;;;8.90;65.40;;;;;;5070355;27;46441;-65
2021/12/01 11:48:50;;;;;;;3.37;2.10;;;8.90;65.50;;;;;;5069592;28;46584;-65
2021/12/01 11:51:25;;;;;;;1.63;1.03;;;9.00;65.40;;;;;;5074229;28;47758;-65
2021/12/01 11:54:09;;;;;;;1.70;1.20;;;9.00;65.20;;;;;;5076854;28;46949;-64
2021/12/01 11:56:37;;;;;;;1.40;0.90;;;9.00;64.90;;;;;;5075924;28;46478;-64
2021/12/01 11:59:19;;;;;;;2.13;1.43;;;9.10;64.80;;;;;;5073638;28;46395;-64
2021/12/01 12:02:02;;;;;;;2.10;1.40;;;9.10;64.60;;;;;;5077721;28;47919;-65
2021/12/01 12:04:48;;;;;;;2.10;1.23;;;9.20;64.70;;;;;;5070037;28;46441;-65
2021/12/01 12:07:21;;;;;;;1.30;0.87;;;9.20;64.70;;;;;;5080920;28;46229;-65
2021/12/01 12:10:14;;;;;;;1.60;1.10;;;9.20;64.70;;;;;;5075178;28;46425;-65
2021/12/01 12:12:47;;;;;;;1.40;0.93;;;9.20;64.70;;;;;;5073039;28;49099;-66
2021/12/01 12:15:41;;;;;;;2.33;1.37;;;9.20;64.70;;;;;;5071403;28;45867;-64
2021/12/01 12:18:09;;;;;;;2.03;0.90;;;9.30;64.80;;;;;;5064766;28;46221;-65
2021/12/01 12:20:43;;;;;;;1.30;1.00;;;9.40;64.70;;;;;;5068428;27;46331;-65
2021/12/01 12:23:11;;;;;;;1.80;0.97;;;9.50;64.30;;;;;;5071140;28;48118;-65
2021/12/01 12:25:44;;;;;;;1.60;1.00;;;9.60;64.00;;;;;;5072468;28;46168;-65
2021/12/01 12:28:27;;;;;;;2.33;1.00;;;9.60;63.80;;;;;;5071831;28;46463;-66
2021/12/01 12:31:00;;;;;;;3.00;1.00;;;9.70;63.60;;;;;;5075344;28;46291;-64
2021/12/01 12:33:28;;;;;;;1.50;1.00;;;9.80;63.60;;;;;;5072922;28;47851;-65
2021/12/01 12:36:07;;;;;;;2.40;1.00;;;9.90;63.50;;;;;;5076566;28;46260;-65
2021/12/01 12:38:33;;;;;;;1.27;0.80;;;9.90;63.20;;;;;;5077270;28;46440;-65
2021/12/01 12:41:03;;;;;;;1.50;0.90;;;9.90;63.20;;;;;;5071769;28;46314;-66
2021/12/01 12:43:32;;;;;;;1.40;0.90;;;9.90;63.10;;;;;;5075396;28;46422;-66
2021/12/01 12:46:04;;;;;;;2.87;1.00;;;9.80;63.20;;;;;;5067604;27;46443;-65
2021/12/01 12:48:37;;;;;;;1.30;0.80;;;9.80;63.00;;;;;;5071761;28;45813;-65
2021/12/01 12:51:26;;;;;;;1.23;0.90;;;9.80;63.00;;;;;;5079813;28;46634;-65
2021/12/01 12:54:08;;;;;;;1.20;0.80;;;9.80;63.00;;;;;;5068363;27;47191;-65
2021/12/01 12:56:36;;;;;;;4.40;0.90;;;9.70;63.00;;;;;;5071921;28;46386;-66
2021/12/01 12:59:32;;;;;;;1.47;0.97;;;9.70;63.00;;;;;;5069850;28;46621;-66
2021/12/01 13:02:10;;;;;;;1.80;1.20;;;9.70;63.00;;;;;;5069403;28;46582;-67
2021/12/01 13:07:33;;;;;;;1.80;0.90;;;9.70;63.00;;;;;;5070814;28;46391;-66
2021/12/01 13:10:05;;;;;;;2.77;1.50;;;9.70;62.80;;;;;;5065197;28;46398;-66
2021/12/01 13:12:53;;;;;;;2.33;1.60;;;9.70;62.70;;;;;;5079029;28;46445;-66
2021/12/01 13:15:24;;;;;;;4.50;2.30;;;9.70;62.70;;;;;;5087337;27;46381;-66